Time;durP1;ratioP1;P1;durP2;ratioP2;P2;SDS_P1;SDS_P2;PMS_P1;PMS_P2;Temp;Humidity;BMP_temperature;BMP_pressure;BME280_temperature;BME280_humidity;BME280_pressure;Samples;Min_cycle;Max_cycle;Signal;HPM_P1;HPM_P2
2022/01/11 00:01:22;;;;;;;136.45;72.63;;;0.60;99.90;;;;;;5066567;28;20535;-71
2022/01/11 00:03:48;;;;;;;112.18;67.50;;;0.60;99.90;;;;;;5068718;28;20048;-71
2022/01/11 00:09:00;;;;;;;286.50;102.00;;;0.60;99.90;;;;;;5066919;28;20061;-71
2022/01/11 00:11:26;;;;;;;104.90;69.18;;;0.50;99.90;;;;;;5066699;28;20040;-71
2022/01/11 00:13:52;;;;;;;104.72;68.35;;;0.50;99.90;;;;;;5068268;28;20123;-71
2022/01/11 00:16:18;;;;;;;118.18;71.65;;;0.50;99.90;;;;;;5069883;28;20127;-70
2022/01/11 00:18:43;;;;;;;130.20;71.95;;;0.50;99.90;;;;;;5068677;28;20045;-70
2022/01/11 00:21:10;;;;;;;91.82;66.22;;;0.50;99.90;;;;;;5066230;28;20036;-70
2022/01/11 00:26:01;;;;;;;102.35;66.50;;;0.50;99.90;;;;;;5068275;28;20114;-70
2022/01/11 00:28:27;;;;;;;115.85;67.70;;;0.50;99.90;;;;;;5062431;28;20086;-70
2022/01/11 00:30:54;;;;;;;179.27;81.95;;;0.50;99.90;;;;;;5067787;28;20072;-70
2022/01/11 00:33:34;;;;;;;254.30;96.22;;;0.50;99.90;;;;;;5066935;28;20495;-70
2022/01/11 00:36:00;;;;;;;107.95;67.70;;;0.40;99.90;;;;;;5064212;28;20123;-70
2022/01/11 00:38:32;;;;;;;208.45;90.22;;;0.40;99.90;;;;;;5061332;28;20044;-70
2022/01/11 00:41:00;;;;;;;101.55;65.97;;;0.40;99.90;;;;;;5067862;28;20428;-70
2022/01/11 00:43:28;;;;;;;109.25;69.38;;;0.30;99.90;;;;;;5067460;28;20044;-70
2022/01/11 00:45:55;;;;;;;113.55;67.50;;;0.30;99.90;;;;;;5068479;28;20128;-70
2022/01/11 00:48:21;;;;;;;138.70;75.25;;;0.30;99.90;;;;;;5068715;28;20059;-70
2022/01/11 00:50:47;;;;;;;183.55;83.28;;;0.40;99.90;;;;;;5067446;28;20097;-70
2022/01/11 00:53:13;;;;;;;108.75;66.30;;;0.40;99.90;;;;;;5067516;28;20271;-70
2022/01/11 00:55:39;;;;;;;106.25;68.75;;;0.30;99.90;;;;;;5063723;28;20048;-70
2022/01/11 00:58:06;;;;;;;180.02;79.50;;;0.40;99.90;;;;;;5059200;28;20036;-70
2022/01/11 01:00:33;;;;;;;122.20;71.72;;;0.40;99.90;;;;;;5067216;28;20051;-70
2022/01/11 01:02:59;;;;;;;388.30;120.20;;;0.40;99.90;;;;;;5066816;28;20040;-70
2022/01/11 01:05:25;;;;;;;123.90;71.65;;;0.40;99.90;;;;;;5064808;28;20379;-70
2022/01/11 01:07:51;;;;;;;114.03;72.45;;;0.40;99.90;;;;;;5066383;28;20104;-70
2022/01/11 01:10:29;;;;;;;105.40;70.40;;;0.40;99.90;;;;;;5068096;28;20463;-70
2022/01/11 01:12:57;;;;;;;609.25;172.40;;;0.40;99.90;;;;;;5061059;28;20087;-70
2022/01/11 01:15:24;;;;;;;661.47;188.30;;;0.50;99.90;;;;;;5068353;28;20047;-70
2022/01/11 01:17:50;;;;;;;241.23;90.43;;;0.40;99.90;;;;;;5068594;28;20345;-70
2022/01/11 01:20:20;;;;;;;134.05;75.55;;;0.40;99.90;;;;;;5061978;28;20041;-70
2022/01/11 01:22:50;;;;;;;164.23;82.35;;;0.40;99.90;;;;;;5059836;28;20107;-70
2022/01/11 01:25:20;;;;;;;148.73;81.07;;;0.40;99.90;;;;;;5062833;28;20118;-70
2022/01/11 01:27:49;;;;;;;120.45;73.05;;;0.40;99.90;;;;;;5066681;28;20528;-70
2022/01/11 01:30:16;;;;;;;198.70;85.93;;;0.30;99.90;;;;;;5065353;28;20044;-70
2022/01/11 01:32:41;;;;;;;294.55;109.93;;;0.30;99.90;;;;;;5065794;28;20051;-70
2022/01/11 01:35:08;;;;;;;320.10;111.65;;;0.30;99.90;;;;;;5063611;28;20041;-70
2022/01/11 01:37:33;;;;;;;391.95;122.65;;;0.30;99.90;;;;;;5067571;28;20052;-70
2022/01/11 01:39:59;;;;;;;358.17;127.43;;;0.30;99.90;;;;;;5065884;28;20110;-70
2022/01/11 01:42:28;;;;;;;132.55;75.93;;;0.20;99.90;;;;;;5065270;28;20119;-70
2022/01/11 01:44:54;;;;;;;297.60;104.47;;;0.20;99.90;;;;;;5066951;28;20044;-69
2022/01/11 01:47:20;;;;;;;121.38;71.78;;;0.20;99.90;;;;;;5064745;28;20041;-70
2022/01/11 01:49:46;;;;;;;126.60;76.60;;;0.30;99.90;;;;;;5065884;28;20053;-70
2022/01/11 01:52:14;;;;;;;243.65;97.45;;;0.30;99.90;;;;;;5063028;28;20127;-70
2022/01/11 01:54:41;;;;;;;136.30;74.32;;;0.30;99.90;;;;;;5065226;28;20159;-70
2022/01/11 01:57:08;;;;;;;183.57;87.50;;;0.30;99.90;;;;;;5081904;28;20044;-70
2022/01/11 01:59:34;;;;;;;262.10;98.30;;;0.40;99.90;;;;;;5064331;28;20056;-70
2022/01/11 02:02:00;;;;;;;287.75;107.90;;;0.30;99.90;;;;;;5066662;28;20607;-70
2022/01/11 02:04:26;;;;;;;300.58;112.03;;;0.30;99.90;;;;;;5073049;28;20048;-70
2022/01/11 02:06:52;;;;;;;140.07;68.78;;;0.20;99.90;;;;;;5057306;28;20387;-70
2022/01/11 02:09:18;;;;;;;105.75;68.93;;;0.20;99.90;;;;;;5064384;28;20051;-70
2022/01/11 02:11:45;;;;;;;134.57;75.72;;;0.20;99.90;;;;;;5047277;28;20044;-70
2022/01/11 02:14:11;;;;;;;107.57;68.03;;;0.20;99.90;;;;;;5057572;28;20040;-70
2022/01/11 02:16:37;;;;;;;138.85;70.25;;;0.20;99.90;;;;;;5074878;28;20467;-70
2022/01/11 02:19:02;;;;;;;160.98;74.30;;;0.20;99.90;;;;;;5067863;28;20045;-70
2022/01/11 02:21:28;;;;;;;163.20;79.45;;;0.20;99.90;;;;;;5070621;28;20046;-70
2022/01/11 02:23:55;;;;;;;355.90;116.82;;;0.20;99.90;;;;;;5060298;28;20081;-70
2022/01/11 02:26:21;;;;;;;112.88;68.78;;;0.10;99.90;;;;;;5069472;28;20048;-70
2022/01/11 02:28:47;;;;;;;255.30;97.07;;;0.10;99.90;;;;;;5070340;28;20040;-70
2022/01/11 02:31:13;;;;;;;244.63;95.10;;;0.10;99.90;;;;;;5063081;28;20806;-70
2022/01/11 02:33:44;;;;;;;122.65;73.68;;;0.20;99.90;;;;;;5070799;28;20052;-70
2022/01/11 02:36:21;;;;;;;422.13;129.73;;;0.20;99.90;;;;;;5069538;28;20417;-70
2022/01/11 02:38:49;;;;;;;528.83;156.73;;;0.20;99.90;;;;;;5068263;28;20037;-70
2022/01/11 02:41:15;;;;;;;380.48;129.77;;;0.20;99.90;;;;;;5069413;28;20110;-70
2022/01/11 02:43:49;;;;;;;260.33;97.28;;;0.20;99.90;;;;;;5067921;28;20043;-70
2022/01/11 02:46:17;;;;;;;180.88;86.50;;;0.20;99.90;;;;;;5069300;28;20092;-70
2022/01/11 02:48:42;;;;;;;242.15;95.25;;;0.20;99.90;;;;;;5068276;28;20048;-70
2022/01/11 02:51:08;;;;;;;445.13;144.98;;;0.20;99.90;;;;;;5069148;28;20413;-70
2022/01/11 02:53:42;;;;;;;239.57;102.47;;;0.20;99.90;;;;;;5067794;28;20467;-70
2022/01/11 02:56:08;;;;;;;232.43;92.78;;;0.20;99.90;;;;;;5067625;28;20037;-70
2022/01/11 02:58:33;;;;;;;261.60;94.03;;;0.20;99.90;;;;;;5070366;28;20078;-70
2022/01/11 03:00:59;;;;;;;518.40;164.23;;;0.20;99.90;;;;;;5069219;28;20049;-70
2022/01/11 03:03:25;;;;;;;384.40;125.88;;;0.20;99.90;;;;;;5066430;28;20048;-70
2022/01/11 03:06:00;;;;;;;273.42;99.72;;;0.20;99.90;;;;;;5070012;28;20489;-70
2022/01/11 03:08:30;;;;;;;134.48;79.07;;;0.20;99.90;;;;;;5067769;28;20049;-70
2022/01/11 03:10:56;;;;;;;377.95;129.30;;;0.20;99.90;;;;;;5068738;28;20037;-70
2022/01/11 03:13:22;;;;;;;542.45;164.35;;;0.20;99.90;;;;;;5067380;28;20044;-70
2022/01/11 03:15:49;;;;;;;201.77;93.78;;;0.20;99.90;;;;;;5070763;28;20036;-70
2022/01/11 03:18:15;;;;;;;231.35;102.57;;;0.10;99.90;;;;;;5060465;28;20052;-70
2022/01/11 03:20:44;;;;;;;134.30;78.03;;;0.20;99.90;;;;;;5068633;28;20051;-70
2022/01/11 03:23:10;;;;;;;178.88;83.18;;;0.20;99.90;;;;;;5067478;28;20198;-70
2022/01/11 03:25:36;;;;;;;192.77;86.93;;;0.10;99.90;;;;;;5063725;28;20040;-70
2022/01/11 03:28:03;;;;;;;309.88;107.78;;;0.10;99.90;;;;;;5066602;28;20477;-70
2022/01/11 03:30:29;;;;;;;353.55;117.70;;;0.10;99.90;;;;;;5054703;28;20615;-70
2022/01/11 03:32:55;;;;;;;209.05;92.68;;;0.00;99.90;;;;;;5067300;28;20056;-70
2022/01/11 03:35:21;;;;;;;188.85;83.95;;;0.00;99.90;;;;;;5067496;28;20072;-70
2022/01/11 03:37:48;;;;;;;319.15;114.72;;;0.00;99.90;;;;;;5066325;28;20044;-70
2022/01/11 03:40:24;;;;;;;279.48;101.13;;;0.00;99.90;;;;;;5068898;28;20036;-70
2022/01/11 03:42:50;;;;;;;253.65;102.50;;;0.00;99.90;;;;;;5065800;28;20040;-70
2022/01/11 03:45:17;;;;;;;251.45;101.32;;;-0.10;99.90;;;;;;5065555;28;20048;-70
2022/01/11 03:47:44;;;;;;;362.42;126.63;;;-0.10;99.90;;;;;;5061615;28;20048;-70
2022/01/11 03:50:11;;;;;;;132.90;74.80;;;-0.10;99.90;;;;;;5071047;28;20056;-70
2022/01/11 03:52:38;;;;;;;167.52;85.13;;;-0.10;99.90;;;;;;5077453;28;20119;-70
2022/01/11 03:55:12;;;;;;;115.25;68.60;;;-0.10;99.90;;;;;;5073259;28;20147;-70
2022/01/11 03:57:38;;;;;;;134.27;70.78;;;-0.10;99.90;;;;;;5068067;28;20849;-70
2022/01/11 04:00:09;;;;;;;221.30;89.38;;;-0.10;99.90;;;;;;5069216;28;20051;-70
2022/01/11 04:02:35;;;;;;;295.65;105.82;;;-0.10;99.90;;;;;;5069380;28;20570;-70
2022/01/11 04:05:01;;;;;;;191.23;83.63;;;-0.20;99.90;;;;;;5066838;28;20072;-70
2022/01/11 04:07:29;;;;;;;294.48;107.55;;;-0.20;99.90;;;;;;5067836;28;20052;-70
2022/01/11 04:09:56;;;;;;;285.48;97.38;;;-0.20;99.90;;;;;;5068047;28;20043;-70
2022/01/11 04:12:23;;;;;;;125.32;72.93;;;-0.20;99.90;;;;;;5075551;28;20049;-70
2022/01/11 04:14:50;;;;;;;131.98;72.00;;;-0.20;99.90;;;;;;5068102;28;20036;-70
2022/01/11 04:17:16;;;;;;;125.85;70.53;;;-0.10;99.90;;;;;;5065184;28;20067;-70
2022/01/11 04:19:42;;;;;;;122.15;70.13;;;-0.10;99.90;;;;;;5053226;28;20032;-70
2022/01/11 04:22:08;;;;;;;161.93;78.07;;;-0.10;99.90;;;;;;5086262;28;20096;-70
2022/01/11 04:24:34;;;;;;;290.85;106.43;;;-0.10;99.90;;;;;;5068472;28;20047;-70
2022/01/11 04:27:00;;;;;;;332.58;115.88;;;-0.10;99.90;;;;;;5064538;28;20032;-70
2022/01/11 04:29:25;;;;;;;119.22;72.68;;;-0.10;99.90;;;;;;5060650;28;20431;-70
2022/01/11 04:31:51;;;;;;;351.73;119.25;;;-0.10;99.90;;;;;;5076802;28;20037;-70
2022/01/11 04:34:17;;;;;;;139.68;75.28;;;-0.10;99.90;;;;;;5068292;28;20451;-70
2022/01/11 04:36:43;;;;;;;169.85;80.35;;;-0.10;99.90;;;;;;5060514;28;20041;-70
2022/01/11 04:39:11;;;;;;;249.30;101.32;;;-0.10;99.90;;;;;;5064257;28;20039;-70
2022/01/11 04:41:37;;;;;;;269.05;104.03;;;0.00;99.90;;;;;;5068270;28;20075;-70
2022/01/11 04:44:04;;;;;;;138.10;75.97;;;-0.10;99.90;;;;;;5066107;28;20036;-70
2022/01/11 04:46:30;;;;;;;383.20;130.70;;;-0.10;99.90;;;;;;5068347;28;20052;-70
2022/01/11 04:48:56;;;;;;;336.75;115.05;;;0.00;99.90;;;;;;5067434;28;20047;-70
2022/01/11 04:51:24;;;;;;;292.13;105.47;;;0.00;99.90;;;;;;5067862;28;20083;-70
2022/01/11 04:53:50;;;;;;;286.80;111.90;;;-0.10;99.90;;;;;;5067447;28;20500;-70
2022/01/11 04:56:15;;;;;;;204.65;90.32;;;-0.10;99.90;;;;;;5069208;28;20123;-70
2022/01/11 04:58:41;;;;;;;147.77;72.43;;;-0.10;99.90;;;;;;5066142;28;20508;-70
2022/01/11 05:01:07;;;;;;;159.18;80.07;;;0.00;99.90;;;;;;5067639;28;20097;-70
2022/01/11 05:03:34;;;;;;;177.20;86.68;;;0.00;99.90;;;;;;5049402;28;20048;-70
2022/01/11 05:06:00;;;;;;;268.65;111.22;;;0.00;99.90;;;;;;5067704;28;20455;-70
2022/01/11 05:08:27;;;;;;;206.80;91.65;;;0.00;99.90;;;;;;5065575;28;20121;-70
2022/01/11 05:10:53;;;;;;;304.08;112.35;;;0.10;99.90;;;;;;5066443;28;20131;-70
2022/01/11 05:13:20;;;;;;;295.50;112.35;;;0.10;99.90;;;;;;5066889;28;20075;-70
2022/01/11 05:15:46;;;;;;;241.75;100.03;;;0.10;99.90;;;;;;5068973;28;20094;-70
2022/01/11 05:18:12;;;;;;;318.65;112.22;;;0.10;99.90;;;;;;5066792;28;20052;-70
2022/01/11 05:20:40;;;;;;;346.17;124.18;;;0.10;99.90;;;;;;5066236;28;20048;-70
2022/01/11 05:23:06;;;;;;;204.50;90.95;;;0.10;99.90;;;;;;5064063;28;20488;-70
2022/01/11 05:25:31;;;;;;;225.18;95.25;;;0.10;99.90;;;;;;5063825;28;20051;-70
2022/01/11 05:28:01;;;;;;;314.35;115.75;;;0.10;99.90;;;;;;5068993;28;20049;-70
2022/01/11 05:30:28;;;;;;;237.75;96.20;;;0.10;99.90;;;;;;5066350;28;20056;-70
2022/01/11 05:32:53;;;;;;;168.77;83.95;;;0.00;99.90;;;;;;5067328;28;20052;-70
2022/01/11 05:35:20;;;;;;;279.33;107.38;;;0.10;99.90;;;;;;5067938;28;20394;-70
2022/01/11 05:37:46;;;;;;;189.80;93.85;;;0.10;99.90;;;;;;5067766;28;20827;-70
2022/01/11 05:40:14;;;;;;;265.90;107.80;;;0.00;99.90;;;;;;5067280;28;20127;-70
2022/01/11 05:42:41;;;;;;;267.70;112.80;;;0.10;99.90;;;;;;5066292;28;20059;-70
2022/01/11 05:45:08;;;;;;;200.68;95.90;;;0.00;99.90;;;;;;5062003;28;20051;-70
2022/01/11 05:47:34;;;;;;;261.58;110.07;;;0.00;99.90;;;;;;5077196;28;20040;-70
2022/01/11 05:50:01;;;;;;;234.65;100.90;;;0.00;99.90;;;;;;5071978;28;20390;-70
2022/01/11 05:52:27;;;;;;;261.33;109.75;;;0.00;99.90;;;;;;5082857;28;20052;-70
2022/01/11 05:54:53;;;;;;;229.90;107.75;;;0.00;99.90;;;;;;5071104;28;20044;-70
2022/01/11 05:57:19;;;;;;;220.48;103.72;;;0.00;99.90;;;;;;5071335;28;20523;-70
2022/01/11 05:59:44;;;;;;;217.98;102.65;;;0.00;99.90;;;;;;5069939;28;20677;-70
2022/01/11 06:02:10;;;;;;;219.38;101.22;;;0.00;99.90;;;;;;5071453;28;20071;-70
2022/01/11 06:04:36;;;;;;;227.90;104.70;;;0.00;99.90;;;;;;5075683;28;20511;-70
2022/01/11 06:07:01;;;;;;;249.13;111.63;;;0.00;99.90;;;;;;5070897;28;20044;-70
2022/01/11 06:09:28;;;;;;;213.18;102.05;;;0.00;99.90;;;;;;5069857;28;20123;-70
2022/01/11 06:11:54;;;;;;;224.80;106.63;;;0.00;99.90;;;;;;5071467;28;20197;-70
2022/01/11 06:14:20;;;;;;;203.85;98.13;;;0.00;99.90;;;;;;5070754;28;20137;-70
2022/01/11 06:16:46;;;;;;;230.88;109.78;;;-0.10;99.90;;;;;;5070021;28;20090;-71
2022/01/11 06:19:12;;;;;;;201.68;96.97;;;-0.10;99.90;;;;;;5067135;28;20123;-70
2022/01/11 06:21:38;;;;;;;196.48;97.13;;;-0.10;99.90;;;;;;5071557;28;20136;-70
2022/01/11 06:24:04;;;;;;;230.70;109.25;;;-0.20;99.90;;;;;;5068802;28;20561;-70
2022/01/11 06:26:30;;;;;;;223.27;103.47;;;-0.20;99.90;;;;;;5069722;28;20076;-71
2022/01/11 06:28:56;;;;;;;240.15;106.35;;;-0.20;99.90;;;;;;5069327;28;20142;-70
2022/01/11 06:31:25;;;;;;;204.18;100.03;;;-0.30;99.90;;;;;;5069113;28;20139;-70
2022/01/11 06:33:51;;;;;;;221.00;105.20;;;-0.30;99.90;;;;;;5068292;28;20569;-70
2022/01/11 06:36:18;;;;;;;214.02;103.22;;;-0.30;99.90;;;;;;5072662;28;20044;-70
2022/01/11 06:38:44;;;;;;;183.50;92.50;;;-0.30;99.90;;;;;;5082877;28;20482;-70
2022/01/11 06:41:12;;;;;;;199.55;95.05;;;-0.30;99.90;;;;;;5072229;28;20059;-70
2022/01/11 06:43:38;;;;;;;222.75;104.45;;;-0.30;99.90;;;;;;5069477;28;20055;-70
2022/01/11 06:46:05;;;;;;;194.27;93.15;;;-0.40;99.90;;;;;;5069264;28;20101;-70
2022/01/11 06:48:31;;;;;;;181.73;95.82;;;-0.40;99.90;;;;;;5068927;28;20130;-70
2022/01/11 06:50:57;;;;;;;194.70;95.45;;;-0.40;99.90;;;;;;5070692;28;20448;-70
2022/01/11 06:53:24;;;;;;;204.32;101.18;;;-0.50;99.90;;;;;;5071288;28;20048;-70
2022/01/11 06:55:50;;;;;;;219.48;103.18;;;-0.50;99.90;;;;;;5071029;28;20056;-70
2022/01/11 06:58:17;;;;;;;199.48;100.63;;;-0.50;99.90;;;;;;5070303;28;20040;-70
2022/01/11 07:00:43;;;;;;;219.73;98.28;;;-0.50;99.90;;;;;;5070144;28;20044;-70
2022/01/11 07:03:10;;;;;;;217.77;100.43;;;-0.50;99.90;;;;;;5069412;28;20104;-70
2022/01/11 07:05:35;;;;;;;227.38;104.90;;;-0.50;99.90;;;;;;5072925;28;20053;-70
2022/01/11 07:08:01;;;;;;;226.30;104.97;;;-0.50;99.90;;;;;;5070658;28;20051;-70
2022/01/11 07:10:28;;;;;;;215.35;101.05;;;-0.50;99.90;;;;;;5070345;28;20049;-70
2022/01/11 07:12:55;;;;;;;233.60;106.00;;;-0.50;99.90;;;;;;5070346;28;20052;-70
2022/01/11 07:15:20;;;;;;;223.25;105.32;;;-0.50;99.90;;;;;;5068310;28;20055;-70
2022/01/11 07:17:47;;;;;;;201.30;103.03;;;-0.50;99.90;;;;;;5069210;28;20048;-70
2022/01/11 07:20:13;;;;;;;223.57;109.25;;;-0.50;99.90;;;;;;5070744;28;20054;-70
2022/01/11 07:22:39;;;;;;;215.93;104.50;;;-0.50;99.90;;;;;;5069566;28;20428;-70
2022/01/11 07:25:06;;;;;;;212.77;101.45;;;-0.50;99.90;;;;;;5069152;28;20041;-70
2022/01/11 07:27:34;;;;;;;227.10;104.00;;;-0.50;99.90;;;;;;5077665;28;20048;-70
2022/01/11 07:30:00;;;;;;;224.48;102.18;;;-0.50;99.90;;;;;;5077676;28;20044;-70
2022/01/11 07:32:26;;;;;;;214.40;105.72;;;-0.50;99.90;;;;;;5069648;28;20052;-70
2022/01/11 07:34:51;;;;;;;216.38;103.88;;;-0.50;99.90;;;;;;5068768;28;20212;-70
2022/01/11 07:37:17;;;;;;;224.00;109.00;;;-0.50;99.90;;;;;;5068339;28;20051;-70
2022/01/11 07:39:43;;;;;;;233.57;108.40;;;-0.40;99.90;;;;;;5062538;28;20037;-70
2022/01/11 07:42:09;;;;;;;203.68;98.32;;;-0.40;99.90;;;;;;5063185;28;20101;-70
2022/01/11 07:44:34;;;;;;;217.93;108.07;;;-0.40;99.90;;;;;;5077027;28;20036;-70
2022/01/11 07:47:02;;;;;;;216.82;102.53;;;-0.40;99.90;;;;;;5059599;28;20041;-70
2022/01/11 07:49:28;;;;;;;198.52;96.35;;;-0.40;99.90;;;;;;5075426;28;20052;-70
2022/01/11 07:51:54;;;;;;;181.25;97.10;;;-0.40;99.90;;;;;;5067183;28;20135;-70
2022/01/11 07:54:20;;;;;;;188.98;91.03;;;-0.40;99.90;;;;;;5059358;28;20132;-70
2022/01/11 07:56:46;;;;;;;178.35;89.88;;;-0.40;99.90;;;;;;5069589;28;20049;-70
2022/01/11 07:59:12;;;;;;;166.68;84.53;;;-0.40;99.90;;;;;;5066694;28;20079;-70
2022/01/11 08:01:39;;;;;;;162.43;84.53;;;-0.30;99.90;;;;;;5065898;28;20044;-70
2022/01/11 08:04:05;;;;;;;161.15;80.25;;;-0.30;99.90;;;;;;5064340;28;20076;-70
2022/01/11 08:06:33;;;;;;;155.07;79.18;;;-0.20;99.90;;;;;;5063122;28;20047;-70
2022/01/11 08:08:59;;;;;;;148.13;77.80;;;-0.20;99.90;;;;;;5060028;28;20048;-70
2022/01/11 08:11:25;;;;;;;147.60;72.28;;;-0.20;99.90;;;;;;5061241;28;20053;-70
2022/01/11 08:13:51;;;;;;;132.85;77.15;;;-0.10;99.90;;;;;;5064923;28;20466;-70
2022/01/11 08:16:17;;;;;;;141.75;74.47;;;-0.10;99.90;;;;;;5060275;28;20083;-70
2022/01/11 08:18:43;;;;;;;140.13;76.70;;;0.00;99.90;;;;;;5063592;28;20390;-70
2022/01/11 08:21:09;;;;;;;139.25;76.25;;;0.00;99.90;;;;;;5073073;28;20049;-70
2022/01/11 08:23:35;;;;;;;139.60;72.97;;;0.10;99.90;;;;;;5064843;28;20059;-70
2022/01/11 08:26:01;;;;;;;126.90;68.38;;;0.10;99.90;;;;;;5060044;28;20036;-70
2022/01/11 08:28:27;;;;;;;118.75;70.82;;;0.20;99.90;;;;;;5063911;28;20045;-70
2022/01/11 08:30:53;;;;;;;126.15;71.28;;;0.30;99.90;;;;;;5061584;28;20058;-70
2022/01/11 08:33:19;;;;;;;119.30;70.10;;;0.30;99.90;;;;;;5067604;28;20090;-70
2022/01/11 08:35:44;;;;;;;113.60;69.28;;;0.40;99.90;;;;;;5065969;28;20048;-70
2022/01/11 08:38:11;;;;;;;116.25;68.05;;;0.40;99.90;;;;;;5066981;28;20037;-71
2022/01/11 08:40:36;;;;;;;114.28;67.78;;;0.50;99.90;;;;;;5062477;28;20040;-71
2022/01/11 08:43:04;;;;;;;104.53;64.90;;;0.50;99.90;;;;;;5064082;28;20042;-71
2022/01/11 08:45:31;;;;;;;112.90;66.00;;;0.60;99.90;;;;;;5069142;28;20101;-70
2022/01/11 08:47:57;;;;;;;121.25;66.97;;;0.60;99.90;;;;;;5061937;28;20052;-71
2022/01/11 08:50:22;;;;;;;112.53;64.55;;;0.70;99.90;;;;;;5056994;28;20044;-71
2022/01/11 08:52:50;;;;;;;103.53;60.75;;;0.70;99.90;;;;;;5066147;28;20152;-71
2022/01/11 08:55:16;;;;;;;117.38;62.80;;;0.80;99.90;;;;;;5063713;28;20059;-71
2022/01/11 08:57:42;;;;;;;107.35;62.35;;;0.80;99.90;;;;;;5067416;28;20460;-71
2022/01/11 09:00:16;;;;;;;104.07;60.90;;;0.90;99.90;;;;;;5065068;28;20048;-71
2022/01/11 09:02:42;;;;;;;107.75;59.65;;;0.90;99.90;;;;;;5060023;28;20121;-71
2022/01/11 09:05:08;;;;;;;102.05;59.53;;;0.90;99.90;;;;;;5065514;28;20198;-71
2022/01/11 09:07:34;;;;;;;111.72;59.65;;;0.90;99.90;;;;;;5065457;28;20108;-71
2022/01/11 09:09:59;;;;;;;104.43;59.85;;;0.90;99.90;;;;;;5044889;28;20052;-71
2022/01/11 09:12:25;;;;;;;109.57;62.80;;;1.00;99.90;;;;;;5061685;28;20059;-71
2022/01/11 09:14:51;;;;;;;98.20;56.33;;;1.00;99.90;;;;;;5065341;28;20670;-71
2022/01/11 09:17:16;;;;;;;99.72;57.22;;;1.10;99.90;;;;;;5065867;28;20056;-71
2022/01/11 09:19:42;;;;;;;92.05;55.88;;;1.10;99.90;;;;;;5069416;28;20049;-71
2022/01/11 09:22:08;;;;;;;85.80;55.78;;;1.10;99.90;;;;;;5066076;28;20051;-71
2022/01/11 09:24:36;;;;;;;96.38;58.28;;;1.10;99.90;;;;;;5064531;28;20052;-71
2022/01/11 09:27:04;;;;;;;99.60;58.30;;;1.10;99.90;;;;;;5066490;28;20096;-71
2022/01/11 09:29:36;;;;;;;90.20;53.72;;;1.10;99.90;;;;;;5069091;28;20128;-71
2022/01/11 09:32:04;;;;;;;88.75;56.25;;;1.20;99.90;;;;;;5066107;28;20039;-71
2022/01/11 09:34:31;;;;;;;96.50;57.40;;;1.20;99.90;;;;;;5064290;28;20120;-72
2022/01/11 09:36:56;;;;;;;88.05;51.30;;;1.20;99.90;;;;;;5064525;28;20062;-72
2022/01/11 09:39:23;;;;;;;95.50;53.67;;;1.20;99.90;;;;;;5065940;28;20052;-72
2022/01/11 09:41:49;;;;;;;84.57;51.00;;;1.30;99.90;;;;;;5068792;28;20081;-72
2022/01/11 09:44:15;;;;;;;75.68;48.55;;;1.30;99.90;;;;;;5066215;28;20048;-72
2022/01/11 09:46:41;;;;;;;86.85;51.20;;;1.40;99.90;;;;;;5068572;28;20500;-72
2022/01/11 09:49:06;;;;;;;82.20;50.70;;;1.40;99.90;;;;;;5067018;28;20091;-72
2022/01/11 09:51:35;;;;;;;81.07;50.50;;;1.50;99.90;;;;;;5068969;28;20060;-72
2022/01/11 09:54:02;;;;;;;90.85;49.47;;;1.50;99.90;;;;;;5066048;28;20036;-72
2022/01/11 09:56:27;;;;;;;77.22;47.65;;;1.50;99.90;;;;;;5071588;28;20052;-72
2022/01/11 09:58:53;;;;;;;73.00;47.35;;;1.50;99.90;;;;;;5062939;28;20198;-72
2022/01/11 10:01:19;;;;;;;80.80;48.00;;;1.50;99.90;;;;;;5066118;28;20055;-72
2022/01/11 10:04:04;;;;;;;79.72;50.15;;;1.50;99.90;;;;;;5064588;28;20056;-72
2022/01/11 10:06:31;;;;;;;80.85;48.17;;;1.60;99.90;;;;;;5064995;28;20056;-72
2022/01/11 10:09:20;;;;;;;80.65;47.40;;;1.70;99.90;;;;;;5067039;28;20052;-72
2022/01/11 10:11:50;;;;;;;67.57;44.13;;;1.70;99.90;;;;;;5066775;28;20040;-73
2022/01/11 10:14:36;;;;;;;74.22;45.17;;;1.70;99.90;;;;;;5065814;28;20037;-72
2022/01/11 10:17:12;;;;;;;69.40;44.63;;;1.70;99.90;;;;;;5062956;28;20076;-73
2022/01/11 10:19:44;;;;;;;68.93;43.65;;;1.80;99.90;;;;;;5064985;28;20068;-73
2022/01/11 10:22:16;;;;;;;76.75;47.75;;;1.80;99.90;;;;;;5062623;28;20075;-73
2022/01/11 10:24:44;;;;;;;62.97;41.33;;;1.80;99.90;;;;;;5065585;28;20036;-73
2022/01/11 10:27:19;;;;;;;73.47;44.97;;;1.80;99.90;;;;;;5066574;28;20044;-72
2022/01/11 10:29:51;;;;;;;71.25;43.95;;;1.80;99.90;;;;;;5066212;28;20527;-72
2022/01/11 10:32:27;;;;;;;71.25;45.42;;;1.70;99.90;;;;;;5049362;28;20049;-73
2022/01/11 10:34:56;;;;;;;68.68;43.47;;;1.70;99.90;;;;;;5062884;28;20052;-73
2022/01/11 10:37:39;;;;;;;84.97;43.13;;;1.70;99.90;;;;;;5069103;28;20049;-73
2022/01/11 10:40:26;;;;;;;72.28;43.58;;;1.70;99.90;;;;;;5068615;28;20549;-73
2022/01/11 10:43:04;;;;;;;67.03;44.20;;;1.70;99.90;;;;;;5055281;28;20052;-73
2022/01/11 10:45:39;;;;;;;62.45;40.40;;;1.70;99.90;;;;;;5064333;28;20040;-73
2022/01/11 10:48:08;;;;;;;66.22;40.75;;;1.70;99.90;;;;;;5068996;28;20105;-73
2022/01/11 10:50:37;;;;;;;61.75;39.20;;;1.70;99.90;;;;;;5067180;28;20109;-73
2022/01/11 10:53:10;;;;;;;66.90;39.63;;;1.70;99.90;;;;;;5067714;28;20092;-72
2022/01/11 10:55:38;;;;;;;72.32;41.90;;;1.90;99.90;;;;;;5069662;28;20110;-73
2022/01/11 10:58:10;;;;;;;66.47;40.50;;;1.90;99.90;;;;;;5060419;28;20496;-73
2022/01/11 11:00:39;;;;;;;69.85;37.72;;;2.00;99.90;;;;;;5064095;28;20040;-73
2022/01/11 11:03:22;;;;;;;73.82;40.70;;;2.00;99.90;;;;;;5063496;28;20119;-72
2022/01/11 11:05:50;;;;;;;64.45;39.13;;;2.00;99.90;;;;;;5057933;28;20057;-72
2022/01/11 11:08:24;;;;;;;55.40;36.13;;;1.90;99.90;;;;;;5061509;28;20057;-73
2022/01/11 11:10:57;;;;;;;53.10;37.08;;;2.00;99.90;;;;;;5060975;28;20055;-72
2022/01/11 11:13:35;;;;;;;62.38;38.65;;;1.90;99.90;;;;;;5066465;28;20044;-73
2022/01/11 11:16:13;;;;;;;62.42;36.80;;;1.90;99.90;;;;;;5065519;28;20044;-73
2022/01/11 11:18:47;;;;;;;61.42;38.10;;;1.80;99.90;;;;;;5058757;28;20041;-73
2022/01/11 11:21:27;;;;;;;61.53;37.30;;;1.80;99.90;;;;;;5070540;28;20071;-72
2022/01/11 11:23:56;;;;;;;57.30;37.95;;;1.80;99.90;;;;;;5070619;28;20363;-73
2022/01/11 11:26:25;;;;;;;63.80;39.63;;;2.00;99.90;;;;;;5069372;28;20052;-72
2022/01/11 11:28:51;;;;;;;60.30;36.85;;;2.20;99.90;;;;;;5068591;28;20080;-72
2022/01/11 11:31:17;;;;;;;60.10;36.95;;;2.30;99.90;;;;;;5064003;28;20071;-72
2022/01/11 11:33:44;;;;;;;52.33;34.75;;;2.50;99.90;;;;;;5067624;28;20044;-72
2022/01/11 11:36:13;;;;;;;52.65;34.25;;;2.50;99.90;;;;;;5068990;28;20052;-72
2022/01/11 11:39:04;;;;;;;60.50;34.80;;;2.60;99.90;;;;;;5069370;28;20056;-72
2022/01/11 11:41:32;;;;;;;57.40;36.47;;;2.60;99.90;;;;;;5068390;28;20059;-72
2022/01/11 11:44:16;;;;;;;62.25;34.13;;;2.70;99.90;;;;;;5070118;28;20560;-72
2022/01/11 11:47:08;;;;;;;55.33;32.85;;;2.80;99.90;;;;;;5065072;28;20088;-72
2022/01/11 11:49:51;;;;;;;58.17;34.53;;;2.90;99.90;;;;;;5062684;28;20069;-72
2022/01/11 11:52:27;;;;;;;58.15;32.35;;;2.90;99.90;;;;;;5067799;28;20169;-72
2022/01/11 11:54:59;;;;;;;55.63;34.33;;;3.10;99.90;;;;;;5062435;28;20045;-72
2022/01/11 11:57:34;;;;;;;58.80;36.45;;;3.20;99.90;;;;;;5068885;28;20059;-73
2022/01/11 12:00:25;;;;;;;52.35;32.17;;;3.30;99.90;;;;;;5077763;28;20565;-72
2022/01/11 12:02:58;;;;;;;52.30;32.33;;;3.40;99.90;;;;;;5068294;28;20106;-72
2022/01/11 12:05:39;;;;;;;53.70;33.05;;;3.40;99.90;;;;;;5070299;28;20136;-72
2022/01/11 12:08:27;;;;;;;55.65;33.58;;;3.50;99.90;;;;;;5067737;28;20048;-72
2022/01/11 12:11:00;;;;;;;57.67;32.72;;;3.50;99.90;;;;;;5052808;28;20493;-72
2022/01/11 12:13:42;;;;;;;50.88;29.38;;;3.50;99.90;;;;;;5070875;28;20052;-72
2022/01/11 12:16:23;;;;;;;58.20;31.50;;;3.60;99.90;;;;;;5066826;28;20048;-73
2022/01/11 12:19:02;;;;;;;59.55;31.65;;;3.70;99.90;;;;;;5065472;28;20132;-72
2022/01/11 12:21:37;;;;;;;53.00;31.77;;;3.70;99.90;;;;;;5067002;28;20040;-72
2022/01/11 12:24:04;;;;;;;56.38;31.67;;;3.80;99.90;;;;;;5066711;28;20078;-72
2022/01/11 12:26:34;;;;;;;51.28;30.20;;;3.90;99.90;;;;;;5067104;28;20612;-72
2022/01/11 12:29:10;;;;;;;49.22;29.85;;;4.10;99.90;;;;;;5069313;28;20570;-72
2022/01/11 12:31:59;;;;;;;53.10;29.30;;;4.20;99.90;;;;;;5051517;28;20539;-73
2022/01/11 12:34:47;;;;;;;54.33;31.33;;;4.40;99.90;;;;;;5074970;28;20106;-73